Smithton, Illinois
Current Conditions -  °F | °C
As of 1:58 AM on Monday 22 Dec 2014 (Local Time) from KBLV Reporting Station
Overcast Overcast  
Wind Chill: 36°   Ceiling: 6000
Heat Index: 40°   Visibility: 10mi
Dew Point: 33°   Wind: 6mph
Humidity: 77%   Direction: 100°E
Pressure: 29.91"   Gusts: NA
Location:  38.41°N, 89.99°W
Report Text: KBLV 220758Z AUTO 10005KT 10SM OVC060 04/01 A2991 RMK AO2 SLP134 T00430005 $
Loading
Personal Weather Stations






























Interactive Weather Map New forecast layout! Learn more

10-Day Weather Forecast

Advertisements
Track Severe Weather on mobile